Time;durP1;ratioP1;P1;durP2;ratioP2;P2;SDS_P1;SDS_P2;PMS_P1;PMS_P2;Temp;Humidity;BMP_temperature;BMP_pressure;BME280_temperature;BME280_humidity;BME280_pressure;Samples;Min_cycle;Max_cycle;Signal;HPM_P1;HPM_P2
2021/04/23 00:00:35;;;;;;;11.45;4.47;;;;;;;6.21;59.27;100707.13;4918646;29;20044;-67
2021/04/23 00:03:04;;;;;;;18.45;6.20;;;;;;;6.11;59.70;100705.56;4940503;29;20116;-69
2021/04/23 00:05:29;;;;;;;16.10;6.35;;;;;;;6.04;59.67;100705.69;4944301;29;20040;-68
2021/04/23 00:07:55;;;;;;;9.70;6.18;;;;;;;5.97;60.30;100697.06;4942853;29;20095;-68
2021/04/23 00:10:21;;;;;;;9.75;5.45;;;;;;;5.84;60.72;100703.34;4936313;29;20044;-69
2021/04/23 00:12:48;;;;;;;11.98;6.32;;;;;;;5.75;61.41;100705.19;4920910;28;20122;-71
2021/04/23 00:15:18;;;;;;;11.00;5.75;;;;;;;5.62;61.58;100697.56;4953542;28;20050;-68
2021/04/23 00:17:43;;;;;;;13.80;5.30;;;;;;;5.55;61.45;100694.16;4936418;29;20039;-70
2021/04/23 00:20:13;;;;;;;12.88;5.63;;;;;;;5.45;61.70;100696.03;4936544;29;20094;-70
2021/04/23 00:22:39;;;;;;;9.57;4.97;;;;;;;5.38;61.97;100697.00;4953285;28;20039;-70
2021/04/23 00:25:05;;;;;;;9.63;4.68;;;;;;;5.31;61.86;100695.34;4953146;28;20031;-68
2021/04/23 00:27:32;;;;;;;12.68;6.15;;;;;;;5.27;62.67;100699.75;4953228;29;20057;-69
2021/04/23 00:29:58;;;;;;;11.25;6.22;;;;;;;5.20;62.50;100694.63;4954878;29;20423;-68
2021/04/23 00:32:24;;;;;;;11.30;5.32;;;;;;;5.15;62.54;100695.53;4917829;29;20492;-67
2021/04/23 00:34:49;;;;;;;11.52;6.65;;;;;;;5.15;63.08;100697.28;4952101;28;20090;-67
2021/04/23 00:37:15;;;;;;;9.98;5.93;;;;;;;4.98;63.71;100702.72;4928313;29;20488;-71
2021/04/23 00:39:41;;;;;;;19.60;6.75;;;;;;;4.89;63.97;100700.19;4952013;29;20035;-69
2021/04/23 00:42:07;;;;;;;12.75;5.25;;;;;;;4.84;63.65;100699.38;4935984;29;20059;-67
2021/04/23 00:44:33;;;;;;;11.00;5.95;;;;;;;4.76;63.92;100696.88;4952628;29;20039;-69
2021/04/23 00:46:58;;;;;;;15.48;7.50;;;;;;;4.67;64.64;100697.81;4952523;29;20027;-71
2021/04/23 00:49:24;;;;;;;14.10;5.75;;;;;;;4.52;65.11;100698.84;4952348;28;20058;-68
2021/04/23 00:51:56;;;;;;;15.20;6.00;;;;;;;4.47;65.35;100694.53;4949474;28;20414;-70
2021/04/23 00:54:22;;;;;;;10.48;5.90;;;;;;;4.39;65.40;100697.22;4950130;28;20105;-70
2021/04/23 00:56:48;;;;;;;18.05;5.72;;;;;;;4.36;65.78;100696.41;4933974;28;20031;-69
2021/04/23 00:59:14;;;;;;;15.10;6.03;;;;;;;4.24;66.09;100700.00;4963488;28;20062;-69
2021/04/23 01:01:43;;;;;;;12.90;7.10;;;;;;;4.06;66.39;100701.88;4952355;28;20077;-69
2021/04/23 01:04:11;;;;;;;7.78;5.63;;;;;;;4.07;66.41;100702.72;4962060;28;20100;-69
2021/04/23 01:06:38;;;;;;;17.80;6.38;;;;;;;4.05;66.68;100702.72;4970163;28;20050;-67
2021/04/23 01:09:10;;;;;;;14.18;5.32;;;;;;;4.04;67.04;100706.22;4954452;28;20038;-68
2021/04/23 01:11:35;;;;;;;12.45;5.70;;;;;;;3.92;66.98;100702.84;4972052;28;20031;-69
2021/04/23 01:14:02;;;;;;;16.45;8.15;;;;;;;3.89;67.24;100698.53;4958117;28;20040;-68
2021/04/23 01:16:28;;;;;;;17.88;5.95;;;;;;;3.85;67.39;100704.63;4936806;28;20042;-70
2021/04/23 01:18:54;;;;;;;13.88;6.18;;;;;;;3.82;67.37;100702.91;4917604;29;20032;-68
2021/04/23 01:21:23;;;;;;;14.88;5.88;;;;;;;3.83;67.33;100696.81;4917740;29;20039;-70
2021/04/23 01:23:51;;;;;;;12.20;6.05;;;;;;;3.77;67.49;100694.25;4933545;29;20500;-67
2021/04/23 01:26:19;;;;;;;17.77;5.38;;;;;;;3.74;67.60;100703.81;4929537;29;20492;-69
2021/04/23 01:28:47;;;;;;;19.65;7.93;;;;;;;3.68;67.79;100696.91;4925855;29;20046;-68
2021/04/23 01:31:14;;;;;;;14.40;7.25;;;;;;;3.66;67.94;100694.31;4950413;29;20042;-69
2021/04/23 01:33:42;;;;;;;16.08;5.90;;;;;;;3.58;67.95;100695.25;4941565;28;20039;-67
2021/04/23 01:36:09;;;;;;;12.57;6.38;;;;;;;3.47;68.22;100695.31;4951500;28;20039;-72
2021/04/23 01:38:37;;;;;;;9.40;5.38;;;;;;;3.27;69.35;100695.38;4930707;29;20031;-68
2021/04/23 01:41:04;;;;;;;8.05;5.03;;;;;;;3.23;68.79;100693.69;4932762;29;20028;-69
2021/04/23 01:43:30;;;;;;;14.02;6.32;;;;;;;3.23;68.69;100698.91;4940761;28;20098;-68
2021/04/23 01:45:56;;;;;;;9.02;4.95;;;;;;;3.15;68.63;100693.72;4924943;29;20398;-69
2021/04/23 01:48:24;;;;;;;11.65;5.90;;;;;;;3.17;68.71;100693.72;4935179;29;20039;-69
2021/04/23 01:50:50;;;;;;;13.75;5.13;;;;;;;3.11;68.90;100697.22;4941760;29;20506;-67
2021/04/23 01:53:17;;;;;;;14.90;5.53;;;;;;;3.01;69.21;100700.72;4951422;28;20035;-70
2021/04/23 01:55:43;;;;;;;17.63;7.03;;;;;;;2.96;68.69;100699.88;4950103;29;20035;-68
2021/04/23 01:58:15;;;;;;;10.77;6.35;;;;;;;2.90;69.18;100702.50;4951155;29;20047;-71
2021/04/23 02:00:47;;;;;;;17.17;6.05;;;;;;;2.85;68.80;100707.72;4951531;29;20035;-71
2021/04/23 02:03:14;;;;;;;10.73;6.32;;;;;;;2.77;69.25;100710.34;4951188;29;20425;-68
2021/04/23 02:05:41;;;;;;;14.80;7.10;;;;;;;2.65;69.65;100712.09;4941274;29;20451;-70
2021/04/23 02:08:09;;;;;;;13.15;6.10;;;;;;;2.53;70.01;100711.25;4951620;29;20042;-70
2021/04/23 02:10:46;;;;;;;14.88;6.78;;;;;;;2.55;69.97;100716.47;4951305;29;20043;-71
2021/04/23 02:13:13;;;;;;;14.43;6.00;;;;;;;2.57;69.60;100717.34;4951680;28;20047;-70
2021/04/23 02:15:41;;;;;;;10.45;5.95;;;;;;;2.57;69.73;100718.19;4933407;29;20118;-69
2021/04/23 02:18:13;;;;;;;16.45;6.65;;;;;;;2.53;69.70;100726.00;4950921;29;20494;-68
2021/04/23 02:20:39;;;;;;;14.05;6.47;;;;;;;2.49;70.29;100732.09;4950863;29;20040;-69
2021/04/23 02:23:07;;;;;;;26.23;10.15;;;;;;;2.38;70.04;100726.88;4951119;28;20396;-71
2021/04/23 02:25:33;;;;;;;10.88;6.13;;;;;;;2.33;70.56;100724.28;4951371;28;20034;-71
2021/04/23 02:27:59;;;;;;;9.68;5.82;;;;;;;2.36;70.37;100723.41;4951229;28;20491;-71
2021/04/23 02:30:31;;;;;;;13.57;7.25;;;;;;;2.36;69.95;100729.50;4950915;29;20062;-69
2021/04/23 02:32:58;;;;;;;10.93;6.28;;;;;;;2.36;70.42;100715.59;4951071;29;20495;-69
2021/04/23 02:35:23;;;;;;;13.88;6.97;;;;;;;2.31;70.08;100723.44;4953026;28;20106;-69
2021/04/23 02:37:50;;;;;;;12.30;6.80;;;;;;;2.29;70.47;100729.47;4955250;28;20031;-69
2021/04/23 02:40:18;;;;;;;11.60;5.97;;;;;;;2.22;70.21;100728.63;4954813;29;20039;-69
2021/04/23 02:42:45;;;;;;;16.13;8.05;;;;;;;2.21;70.25;100721.69;4954832;29;20047;-67
2021/04/23 02:45:15;;;;;;;14.45;6.78;;;;;;;2.17;70.38;100726.88;4954357;29;20050;-68
2021/04/23 02:47:41;;;;;;;15.10;6.45;;;;;;;2.11;71.16;100723.41;4954074;29;20039;-68
2021/04/23 02:50:09;;;;;;;11.50;5.85;;;;;;;2.11;70.40;100735.56;4954514;28;20066;-69
2021/04/23 02:52:34;;;;;;;12.48;6.55;;;;;;;2.13;70.27;100733.81;4954719;29;20059;-69
2021/04/23 02:55:00;;;;;;;23.30;7.75;;;;;;;2.11;70.52;100735.56;4939033;29;20071;-69
2021/04/23 02:57:26;;;;;;;10.48;5.50;;;;;;;2.08;70.79;100741.63;4940291;29;20035;-69
2021/04/23 02:59:52;;;;;;;15.27;6.13;;;;;;;2.02;70.98;100738.13;4940374;29;20131;-69
2021/04/23 03:02:18;;;;;;;10.93;5.53;;;;;;;1.98;70.85;100742.47;4916056;29;20182;-69
2021/04/23 03:04:44;;;;;;;10.20;4.72;;;;;;;1.94;71.12;100751.13;4916252;29;20048;-69
2021/04/23 03:07:09;;;;;;;13.57;6.20;;;;;;;1.89;71.15;100748.53;4926973;29;20051;-69
2021/04/23 03:09:34;;;;;;;12.57;5.55;;;;;;;1.88;71.01;100751.16;4935414;29;20046;-68
2021/04/23 03:12:00;;;;;;;7.30;5.18;;;;;;;1.87;70.72;100746.78;4935230;29;20087;-68
2021/04/23 03:14:26;;;;;;;17.13;6.10;;;;;;;1.86;70.23;100753.72;4935009;29;20070;-69
2021/04/23 03:16:51;;;;;;;8.45;5.38;;;;;;;1.76;70.87;100751.13;4935361;29;20062;-69
2021/04/23 03:19:19;;;;;;;18.35;6.90;;;;;;;1.68;71.14;100751.09;4935614;29;20052;-68
2021/04/23 03:21:45;;;;;;;11.43;6.75;;;;;;;1.56;71.56;100751.06;4936385;29;20499;-68
2021/04/23 03:24:12;;;;;;;11.30;6.47;;;;;;;1.51;71.74;100751.03;4940716;29;20394;-70
2021/04/23 03:26:39;;;;;;;8.60;5.32;;;;;;;1.51;71.94;100751.03;4943851;29;20027;-69
2021/04/23 03:29:06;;;;;;;12.48;7.10;;;;;;;1.52;71.59;100757.09;4936523;29;20063;-69
2021/04/23 03:31:34;;;;;;;21.63;6.25;;;;;;;1.45;72.07;100757.09;4933313;29;20039;-68
2021/04/23 03:34:00;;;;;;;14.70;6.43;;;;;;;1.46;71.81;100757.97;4900817;29;20114;-71
2021/04/23 03:36:26;;;;;;;15.70;7.88;;;;;;;1.43;71.35;100756.22;4916893;29;20035;-69
2021/04/23 03:38:52;;;;;;;13.30;7.65;;;;;;;1.49;71.74;100761.44;4934121;29;20099;-69
2021/04/23 03:41:21;;;;;;;12.95;7.45;;;;;;;1.42;71.57;100753.59;4916738;29;20090;-70
2021/04/23 03:43:47;;;;;;;18.15;7.45;;;;;;;1.44;72.14;100759.69;4920495;29;20043;-68
2021/04/23 03:46:13;;;;;;;25.95;9.00;;;;;;;1.33;72.24;100757.06;4917995;29;20098;-67
2021/04/23 03:48:40;;;;;;;12.70;6.05;;;;;;;1.32;72.54;100757.03;4918466;29;20498;-68
2021/04/23 03:51:07;;;;;;;18.98;6.90;;;;;;;1.31;72.37;100756.19;4937667;29;20063;-68
2021/04/23 03:53:33;;;;;;;13.25;6.70;;;;;;;1.36;72.20;100764.84;4938325;29;20039;-69
2021/04/23 03:55:58;;;;;;;21.40;7.88;;;;;;;1.37;72.20;100766.56;4939443;29;20035;-67
2021/04/23 03:58:24;;;;;;;11.75;6.68;;;;;;;1.34;71.84;100757.91;4935648;29;20047;-69
2021/04/23 04:00:55;;;;;;;11.57;5.95;;;;;;;1.29;71.67;100766.53;4935091;29;20126;-70
2021/04/23 04:03:22;;;;;;;14.82;5.97;;;;;;;1.25;72.27;100757.00;4934323;29;20122;-71
2021/04/23 04:05:47;;;;;;;15.27;7.70;;;;;;;1.22;72.02;100761.31;4934593;29;20047;-70
2021/04/23 04:08:14;;;;;;;19.17;8.73;;;;;;;1.23;72.44;100758.75;4934543;29;20040;-68
2021/04/23 04:10:40;;;;;;;16.42;6.53;;;;;;;1.20;72.97;100757.84;4934402;29;20046;-68
2021/04/23 04:13:06;;;;;;;22.58;6.93;;;;;;;1.17;72.94;100763.88;4933956;29;20043;-69
2021/04/23 04:15:33;;;;;;;17.08;7.13;;;;;;;1.15;72.88;100764.75;4934060;29;20448;-69
2021/04/23 04:17:58;;;;;;;17.63;7.13;;;;;;;1.14;72.70;100773.41;4917453;29;20035;-69
2021/04/23 04:20:26;;;;;;;10.65;6.47;;;;;;;1.12;72.55;100776.00;4917663;29;20102;-69
2021/04/23 04:22:51;;;;;;;11.88;6.30;;;;;;;1.11;71.81;100783.75;4934400;29;20115;-68
2021/04/23 04:25:25;;;;;;;17.52;7.63;;;;;;;1.08;72.48;100779.41;4933987;29;20127;-69
2021/04/23 04:27:51;;;;;;;10.85;6.53;;;;;;;1.05;72.67;100777.66;4917653;29;20061;-69
2021/04/23 04:30:17;;;;;;;20.10;8.30;;;;;;;1.05;73.11;100782.00;4917839;29;20508;-69
2021/04/23 04:32:43;;;;;;;15.68;7.47;;;;;;;0.96;72.97;100781.94;4934695;29;20051;-68
2021/04/23 04:35:09;;;;;;;17.05;7.93;;;;;;;0.93;72.73;100784.53;4933699;29;20048;-68
2021/04/23 04:37:34;;;;;;;23.10;8.35;;;;;;;0.90;73.28;100787.97;4934619;29;20040;-68
2021/04/23 04:39:59;;;;;;;20.20;9.50;;;;;;;0.88;73.34;100787.09;4934006;29;20036;-68
2021/04/23 04:42:25;;;;;;;17.75;8.88;;;;;;;0.76;73.85;100793.06;4934205;29;20044;-68
2021/04/23 04:44:51;;;;;;;19.13;9.02;;;;;;;0.76;74.11;100793.06;4934743;29;20047;-69
2021/04/23 04:47:18;;;;;;;13.35;7.85;;;;;;;0.84;73.74;100790.53;4933659;29;20063;-69
2021/04/23 04:49:44;;;;;;;18.63;9.70;;;;;;;0.91;73.12;100794.03;4934081;29;20503;-67
2021/04/23 04:52:10;;;;;;;18.42;9.40;;;;;;;0.97;73.73;100800.13;4933578;29;20048;-69
2021/04/23 04:54:35;;;;;;;20.85;8.07;;;;;;;1.01;73.58;100803.59;4933099;29;20834;-69
2021/04/23 04:57:00;;;;;;;13.65;8.20;;;;;;;1.07;73.00;100814.03;4945968;28;20114;-69
2021/04/23 04:59:26;;;;;;;18.10;7.03;;;;;;;1.09;73.10;100803.69;4946009;29;20035;-68
2021/04/23 05:01:51;;;;;;;19.60;7.47;;;;;;;1.19;72.79;100816.72;4931274;28;20179;-68
2021/04/23 05:04:16;;;;;;;18.65;9.07;;;;;;;1.30;72.20;100819.38;4914202;29;20040;-68
2021/04/23 05:06:42;;;;;;;14.80;7.68;;;;;;;1.38;71.68;100817.69;4918124;29;20563;-68
2021/04/23 05:09:07;;;;;;;18.17;9.50;;;;;;;1.48;71.59;100823.81;4917990;29;20036;-69
2021/04/23 05:11:33;;;;;;;16.30;9.07;;;;;;;1.65;71.34;100827.34;4914407;29;20046;-69
2021/04/23 05:13:59;;;;;;;22.90;10.98;;;;;;;1.78;70.57;100832.59;4927316;29;20169;-69
2021/04/23 05:16:24;;;;;;;21.05;8.48;;;;;;;1.90;70.24;100827.44;4915785;29;20071;-69
2021/04/23 05:18:50;;;;;;;17.00;8.77;;;;;;;2.01;70.16;100836.09;4933129;29;20055;-68
2021/04/23 05:21:15;;;;;;;12.45;6.72;;;;;;;2.18;69.68;100838.75;4933067;29;20063;-68
2021/04/23 05:23:41;;;;;;;20.90;10.13;;;;;;;2.36;69.15;100838.78;4933197;29;20054;-68
2021/04/23 05:26:07;;;;;;;17.40;8.75;;;;;;;2.61;68.57;100841.41;4935456;29;20122;-69
2021/04/23 05:28:32;;;;;;;15.48;8.90;;;;;;;2.80;67.75;100850.94;4932958;29;20637;-68
2021/04/23 05:30:58;;;;;;;20.63;9.57;;;;;;;2.94;67.50;100847.47;4932463;29;20074;-69
2021/04/23 05:33:23;;;;;;;18.65;8.80;;;;;;;2.98;67.45;100842.25;4933707;29;20055;-69
2021/04/23 05:35:49;;;;;;;21.55;7.85;;;;;;;3.13;67.12;100843.97;4937538;28;20039;-68
2021/04/23 05:38:15;;;;;;;14.98;9.10;;;;;;;3.33;66.32;100837.84;4942890;29;20039;-69
2021/04/23 05:40:44;;;;;;;27.13;9.52;;;;;;;3.50;65.63;100843.88;4941403;28;20112;-69
2021/04/23 05:43:10;;;;;;;22.95;9.98;;;;;;;3.55;65.93;100849.09;4941350;28;20062;-69
2021/04/23 05:45:37;;;;;;;23.38;9.80;;;;;;;3.63;65.39;100844.69;4942315;28;20050;-69
2021/04/23 05:48:03;;;;;;;17.75;8.90;;;;;;;3.67;65.79;100851.66;4941596;29;20043;-69
2021/04/23 05:50:29;;;;;;;32.33;11.02;;;;;;;3.86;65.00;100850.72;4940541;28;20047;-69
2021/04/23 05:52:55;;;;;;;18.45;8.70;;;;;;;4.04;64.56;100854.97;4941025;29;20066;-69
2021/04/23 05:55:26;;;;;;;29.10;10.77;;;;;;;4.20;64.42;100850.50;4940766;28;20052;-69
2021/04/23 05:57:56;;;;;;;34.72;11.60;;;;;;;4.38;63.83;100849.53;4941386;29;20039;-69
2021/04/23 06:00:24;;;;;;;25.17;10.75;;;;;;;4.50;63.53;100864.22;4924079;29;20039;-68
2021/04/23 06:02:50;;;;;;;33.90;11.95;;;;;;;4.63;63.50;100858.06;4939560;29;20097;-71
2021/04/23 06:05:17;;;;;;;30.08;12.57;;;;;;;4.79;62.83;100858.78;4939846;29;20043;-71
2021/04/23 06:07:43;;;;;;;24.73;11.18;;;;;;;5.04;62.02;100858.56;4925392;29;20395;-70
2021/04/23 06:10:10;;;;;;;23.35;10.80;;;;;;;5.34;61.52;100853.06;4945548;28;20091;-71
2021/04/23 06:12:36;;;;;;;22.92;10.25;;;;;;;5.60;61.17;100851.88;4944747;28;20038;-70
2021/04/23 06:15:04;;;;;;;21.48;10.20;;;;;;;5.91;59.85;100849.78;4929586;29;20036;-71
2021/04/23 06:17:29;;;;;;;22.33;11.23;;;;;;;6.20;59.24;100848.53;4928059;29;20028;-71
2021/04/23 06:19:54;;;;;;;14.23;8.95;;;;;;;6.70;58.02;100852.16;4928457;29;20091;-72
2021/04/23 06:22:20;;;;;;;21.88;10.55;;;;;;;7.19;56.47;100850.47;4926963;29;20051;-71
2021/04/23 06:24:45;;;;;;;24.85;11.45;;;;;;;7.67;54.94;100846.00;4927436;29;20047;-71
2021/04/23 06:27:11;;;;;;;32.10;12.13;;;;;;;7.92;54.46;100850.75;4922338;29;20158;-72
2021/04/23 06:29:36;;;;;;;32.72;12.48;;;;;;;8.28;52.96;100851.72;4940171;29;20093;-72
2021/04/23 06:32:02;;;;;;;22.65;11.02;;;;;;;8.49;52.38;100845.16;4944723;29;20648;-73
2021/04/23 06:34:27;;;;;;;26.00;12.02;;;;;;;9.06;51.12;100853.38;4952461;29;20442;-72
2021/04/23 06:36:53;;;;;;;32.42;12.15;;;;;;;9.44;49.43;100844.47;4944682;29;20039;-73
2021/04/23 06:39:19;;;;;;;26.70;12.50;;;;;;;9.79;49.06;100854.00;4930986;29;20040;-74
2021/04/23 06:41:45;;;;;;;24.65;11.40;;;;;;;9.51;49.16;100861.81;4927728;29;20044;-70
2021/04/23 06:44:11;;;;;;;18.45;10.52;;;;;;;9.46;49.16;100872.47;4934787;29;20043;-69
2021/04/23 06:46:37;;;;;;;23.58;12.70;;;;;;;9.61;49.06;100873.81;4942983;29;20044;-70
2021/04/23 06:49:03;;;;;;;21.88;10.80;;;;;;;9.61;48.93;100870.31;4929988;29;20120;-71
2021/04/23 06:51:28;;;;;;;17.98;10.15;;;;;;;9.58;49.15;100875.69;4939562;28;20592;-69
2021/04/23 06:53:54;;;;;;;18.52;9.32;;;;;;;9.62;49.68;100878.19;4936530;29;20046;-70
2021/04/23 06:56:19;;;;;;;21.55;12.35;;;;;;;9.72;49.01;100877.91;4929762;29;20039;-68
2021/04/23 06:58:46;;;;;;;26.45;12.68;;;;;;;9.67;47.98;100876.28;4928619;28;20079;-69
2021/04/23 07:01:16;;;;;;;43.95;14.27;;;;;;;9.71;48.52;100874.44;4913481;29;20484;-70
2021/04/23 07:03:43;;;;;;;19.02;9.52;;;;;;;9.86;47.55;100870.50;4928797;29;20084;-70
2021/04/23 07:06:09;;;;;;;21.70;10.98;;;;;;;10.08;47.49;100870.72;4928938;29;20048;-70
2021/04/23 07:08:36;;;;;;;22.35;11.38;;;;;;;10.30;47.45;100876.25;4926652;29;20094;-70
2021/04/23 07:11:02;;;;;;;21.02;11.52;;;;;;;10.48;45.94;100880.06;4935903;29;20046;-69
2021/04/23 07:13:27;;;;;;;23.02;11.85;;;;;;;10.77;46.01;100883.56;4939305;29;20040;-69
2021/04/23 07:15:53;;;;;;;24.88;11.15;;;;;;;11.08;44.73;100880.78;4908742;29;20036;-69
2021/04/23 07:18:18;;;;;;;19.08;11.85;;;;;;;11.42;44.59;100891.06;4912170;29;20057;-70
2021/04/23 07:20:44;;;;;;;15.98;10.70;;;;;;;11.59;43.52;100887.78;4912835;29;20432;-70
2021/04/23 07:23:09;;;;;;;28.73;12.82;;;;;;;11.73;42.85;100892.59;4929037;29;20040;-69
2021/04/23 07:25:35;;;;;;;21.20;12.52;;;;;;;11.65;42.99;100892.88;4909523;29;20118;-70
2021/04/23 07:28:01;;;;;;;30.52;12.30;;;;;;;11.58;43.59;100888.72;4923416;29;20155;-70
2021/04/23 07:30:30;;;;;;;18.85;11.38;;;;;;;11.74;43.14;100886.38;4914937;29;20616;-69
2021/04/23 07:32:57;;;;;;;23.73;10.55;;;;;;;11.95;42.32;100884.78;4917884;29;20039;-70
2021/04/23 07:35:23;;;;;;;20.88;11.27;;;;;;;12.16;41.82;100889.25;4919209;29;20050;-69
2021/04/23 07:37:49;;;;;;;20.38;9.80;;;;;;;12.32;41.89;100886.03;4913810;29;20100;-69
2021/04/23 07:40:16;;;;;;;18.60;10.80;;;;;;;12.23;41.78;100881.94;4931209;29;20047;-69
2021/04/23 07:42:42;;;;;;;22.17;11.57;;;;;;;12.24;42.32;100881.88;4950191;29;20041;-69
2021/04/23 07:45:08;;;;;;;21.17;11.50;;;;;;;12.65;41.12;100876.75;4927336;29;20411;-70
2021/04/23 07:47:35;;;;;;;22.48;11.95;;;;;;;12.64;40.85;100877.66;4948463;28;20031;-69
2021/04/23 07:50:01;;;;;;;19.35;12.07;;;;;;;12.80;40.63;100874.41;4947788;29;20050;-70
2021/04/23 07:52:27;;;;;;;19.40;9.88;;;;;;;13.13;40.23;100873.94;4931765;29;20178;-69
2021/04/23 07:54:54;;;;;;;28.50;12.05;;;;;;;12.80;39.86;100875.28;4948681;29;20031;-70
2021/04/23 07:57:19;;;;;;;20.55;10.50;;;;;;;12.68;39.92;100878.41;4948212;28;20035;-70
2021/04/23 07:59:45;;;;;;;17.25;10.50;;;;;;;12.92;40.49;100884.50;4948695;28;20399;-69
2021/04/23 08:02:10;;;;;;;19.80;12.40;;;;;;;13.00;39.07;100882.38;4927911;29;20070;-69
2021/04/23 08:04:38;;;;;;;20.35;11.88;;;;;;;12.96;39.78;100883.44;4927387;29;20134;-70
2021/04/23 08:07:07;;;;;;;17.63;10.77;;;;;;;12.53;40.07;100873.72;4946611;29;20118;-69
2021/04/23 08:09:36;;;;;;;32.85;11.60;;;;;;;12.42;40.88;100876.81;4948599;29;20050;-70
2021/04/23 08:12:02;;;;;;;19.80;10.77;;;;;;;12.55;40.42;100878.06;4948498;29;20046;-70
2021/04/23 08:14:28;;;;;;;29.77;11.25;;;;;;;12.73;40.00;100879.09;4948407;28;20047;-70
2021/04/23 08:16:53;;;;;;;19.38;9.98;;;;;;;12.83;39.52;100877.78;4929528;29;20423;-70
2021/04/23 08:19:19;;;;;;;16.13;9.05;;;;;;;13.57;38.06;100876.47;4922307;29;20066;-71
2021/04/23 08:21:44;;;;;;;17.27;10.85;;;;;;;13.30;36.86;100879.41;4942820;29;20417;-70
2021/04/23 08:24:10;;;;;;;19.35;10.40;;;;;;;13.16;37.49;100881.75;4929212;29;20153;-68
2021/04/23 08:26:36;;;;;;;15.32;8.88;;;;;;;13.45;36.47;100880.53;4934715;29;20054;-70
2021/04/23 08:29:02;;;;;;;32.13;11.73;;;;;;;13.52;36.68;100885.47;4939528;29;20031;-72
2021/04/23 08:31:29;;;;;;;32.05;11.48;;;;;;;13.60;36.60;100871.88;4947798;29;20035;-70
2021/04/23 08:33:55;;;;;;;20.83;11.13;;;;;;;13.75;36.72;100870.34;4947700;28;20380;-69
2021/04/23 08:36:20;;;;;;;15.77;9.48;;;;;;;14.01;36.08;100877.13;4947882;28;20043;-68
2021/04/23 08:38:46;;;;;;;16.30;10.77;;;;;;;14.25;36.16;100872.47;4947921;29;20047;-69
2021/04/23 08:41:11;;;;;;;15.38;10.88;;;;;;;14.35;35.97;100873.75;4946811;29;20039;-71
2021/04/23 08:43:37;;;;;;;17.98;10.40;;;;;;;14.91;33.69;100879.06;4929702;28;20048;-71
2021/04/23 08:46:03;;;;;;;18.20;12.18;;;;;;;15.23;33.88;100877.44;4928078;29;20035;-68
2021/04/23 08:48:30;;;;;;;22.92;12.20;;;;;;;15.34;33.53;100872.44;4928616;29;20040;-70
2021/04/23 08:50:56;;;;;;;20.88;10.40;;;;;;;15.44;33.31;100871.00;4928564;29;20074;-69
2021/04/23 08:53:26;;;;;;;16.67;10.90;;;;;;;15.99;32.91;100872.56;4913276;29;20047;-74
2021/04/23 08:55:56;;;;;;;41.30;13.00;;;;;;;15.97;33.00;100874.44;4909101;29;20055;-71
2021/04/23 08:58:22;;;;;;;19.98;10.82;;;;;;;15.63;33.35;100875.38;4918685;29;20641;-70
2021/04/23 09:00:48;;;;;;;16.63;10.68;;;;;;;15.26;33.77;100871.97;4915279;29;20064;-70
2021/04/23 09:03:19;;;;;;;14.77;11.10;;;;;;;15.11;34.31;100870.09;4926273;29;20067;-70
2021/04/23 09:06:21;;;;;;;18.67;10.75;;;;;;;14.92;35.06;100864.88;4925136;29;20043;-71
2021/04/23 09:08:53;;;;;;;16.65;10.55;;;;;;;14.85;34.48;100866.09;4930161;29;20044;-70
2021/04/23 09:11:43;;;;;;;18.58;10.90;;;;;;;15.40;33.70;100863.28;4923859;29;20043;-69
2021/04/23 09:14:16;;;;;;;32.20;12.82;;;;;;;15.51;33.64;100862.75;4935489;29;20138;-70
2021/04/23 09:16:44;;;;;;;19.92;10.88;;;;;;;15.18;34.01;100861.72;4938486;28;20032;-69
2021/04/23 09:19:30;;;;;;;15.25;10.15;;;;;;;14.98;34.00;100867.19;4935699;28;20050;-69
2021/04/23 09:21:59;;;;;;;14.15;9.18;;;;;;;15.19;33.48;100866.13;4930195;29;20125;-69
2021/04/23 09:24:43;;;;;;;17.98;9.70;;;;;;;15.47;33.23;100856.72;4919941;29;20055;-70
2021/04/23 09:27:14;;;;;;;15.90;9.57;;;;;;;16.03;32.63;100852.84;4926428;29;20043;-70
2021/04/23 09:29:43;;;;;;;13.50;9.45;;;;;;;16.56;30.94;100856.09;4933058;29;20127;-70
2021/04/23 09:32:10;;;;;;;28.30;10.50;;;;;;;17.30;29.90;100854.47;4936729;29;20443;-70
2021/04/23 09:34:55;;;;;;;17.88;10.30;;;;;;;17.62;29.38;100857.84;4926841;29;20032;-70
2021/04/23 09:37:23;;;;;;;16.95;8.82;;;;;;;18.36;28.72;100846.09;4927142;29;20074;-71
2021/04/23 09:39:51;;;;;;;22.48;11.45;;;;;;;18.93;28.18;100855.75;4925038;29;20040;-70
2021/04/23 09:42:17;;;;;;;14.23;8.88;;;;;;;19.32;27.60;100859.38;4924223;29;20086;-71
2021/04/23 09:44:45;;;;;;;15.20;8.95;;;;;;;20.11;26.49;100852.06;4922649;29;20047;-70
2021/04/23 09:47:18;;;;;;;20.88;11.18;;;;;;;19.73;26.72;100848.47;4911628;29;20097;-70
2021/04/23 09:49:46;;;;;;;16.42;9.77;;;;;;;19.81;26.63;100853.25;4944761;29;20062;-70
2021/04/23 09:52:13;;;;;;;17.55;9.85;;;;;;;19.91;26.05;100849.00;4938989;28;20048;-72
2021/04/23 09:54:40;;;;;;;13.88;9.02;;;;;;;20.47;26.08;100839.63;4929954;29;20074;-72
2021/04/23 09:57:22;;;;;;;21.25;9.50;;;;;;;20.79;25.08;100847.97;4925507;29;20210;-73
2021/04/23 09:59:51;;;;;;;19.10;9.32;;;;;;;21.22;24.45;100844.72;4926540;29;20049;-73
2021/04/23 10:02:18;;;;;;;16.60;8.68;;;;;;;20.86;24.43;100840.31;4929194;29;20035;-48
2021/04/23 10:04:44;;;;;;;68.88;53.08;;;;;;;20.89;25.26;100840.94;4934235;29;20044;-54
2021/04/23 10:07:23;;;;;;;59.15;34.25;;;;;;;21.11;23.88;100832.09;4943036;29;20565;-50
2021/04/23 10:10:02;;;;;;;103.25;68.05;;;;;;;21.11;23.72;100833.94;4909573;29;20035;-70
2021/04/23 10:12:30;;;;;;;14.68;10.20;;;;;;;21.30;23.51;100833.38;4926899;29;20507;-70
2021/04/23 10:15:05;;;;;;;17.63;10.77;;;;;;;20.34;25.00;100834.31;4927178;29;20047;-68
2021/04/23 10:17:30;;;;;;;19.25;9.38;;;;;;;20.86;24.75;100829.59;4927616;29;20036;-68
2021/04/23 10:19:57;;;;;;;14.52;8.23;;;;;;;21.54;23.71;100828.81;4926804;29;20829;-68
2021/04/23 10:22:24;;;;;;;13.85;9.05;;;;;;;21.58;23.53;100834.78;4938557;29;20043;-72
2021/04/23 10:24:50;;;;;;;17.83;9.52;;;;;;;21.78;22.73;100833.22;4932734;29;20071;-70
2021/04/23 10:27:18;;;;;;;14.38;8.20;;;;;;;22.18;22.46;100822.81;4926695;29;20040;-68
2021/04/23 10:29:50;;;;;;;13.45;8.32;;;;;;;21.44;22.78;100825.16;4927072;29;20444;-70
2021/04/23 10:32:16;;;;;;;15.73;8.75;;;;;;;21.96;22.58;100822.84;4926725;29;20043;-70
2021/04/23 10:34:42;;;;;;;18.63;8.77;;;;;;;21.97;22.31;100830.75;4937679;29;20372;-71
2021/04/23 10:37:09;;;;;;;17.75;9.77;;;;;;;21.37;22.87;100821.22;4942841;28;20046;-69
2021/04/23 10:39:38;;;;;;;21.73;8.77;;;;;;;21.05;23.23;100827.22;4932114;29;20122;-70
2021/04/23 10:42:05;;;;;;;14.40;9.00;;;;;;;20.25;23.37;100829.63;4929443;28;20361;-70
2021/04/23 10:45:00;;;;;;;14.05;7.78;;;;;;;19.81;24.41;100823.81;4908970;29;20035;-68
2021/04/23 10:47:33;;;;;;;20.80;8.25;;;;;;;19.06;25.06;100821.03;4922500;29;20052;-71
2021/04/23 10:50:09;;;;;;;17.02;8.15;;;;;;;18.62;26.34;100820.34;4926026;29;20040;-69
2021/04/23 10:52:34;;;;;;;16.48;7.72;;;;;;;17.91;26.95;100824.06;4926739;29;20044;-63
2021/04/23 10:55:07;;;;;;;13.75;7.13;;;;;;;17.43;27.09;100825.28;4928054;29;20044;-70
2021/04/23 10:58:02;;;;;;;14.85;7.72;;;;;;;16.33;29.03;100827.28;4929349;29;20036;-70
2021/04/23 11:00:39;;;;;;;15.32;7.82;;;;;;;15.67;30.21;100826.41;4908154;29;20040;-69
2021/04/23 11:03:25;;;;;;;11.93;8.52;;;;;;;15.32;29.47;100828.28;4916568;29;20133;-74
2021/04/23 11:05:56;;;;;;;14.10;8.13;;;;;;;15.24;29.99;100823.38;4903869;29;20122;-69
2021/04/23 11:08:23;;;;;;;17.38;10.15;;;;;;;14.65;32.17;100819.31;4928347;29;20090;-68
2021/04/23 11:11:00;;;;;;;14.25;8.23;;;;;;;14.62;32.90;100822.97;4910304;29;20075;-70
2021/04/23 11:13:28;;;;;;;24.58;8.48;;;;;;;14.47;31.85;100821.91;4935229;28;20039;-68
2021/04/23 11:16:18;;;;;;;16.08;9.60;;;;;;;14.31;33.40;100828.88;4931602;28;20040;-69
2021/04/23 11:18:48;;;;;;;25.30;9.27;;;;;;;14.03;33.88;100826.66;4923475;29;20115;-69
2021/04/23 11:21:31;;;;;;;14.75;8.77;;;;;;;13.90;33.07;100821.94;4930627;29;20055;-68